X  Fechar Metar - Info de Aeroporto     LPMT Montijo Air Base
Temperatura
20°C Temperatura
16°C Ptº Orvalho
78% Humidade



Vento
19 KM/H
12 MPH
5 M/S
10 NÓS



340°
NNO
Condições Atuais

Parcialmente Nublado Parcialmente Nublado
Pressão 1015.92 (hPa) - 30 (inHg)
Visibilidade 6 (milha) - 9.7 (km)
Aeroporto
Código-Aeroporto LPMT

Localização: Montijo Air Base
Distância: 6 (km)

Metar:
LPMT 150700Z 34010KT 9999 FEW015 SCT025 20/16 Q1016

Hora: 2024-07-15 08:00 WEST